Time;durP1;ratioP1;P1;durP2;ratioP2;P2;SDS_P1;SDS_P2;PMS_P1;PMS_P2;Temp;Humidity;BMP_temperature;BMP_pressure;BME280_temperature;BME280_humidity;BME280_pressure;Samples;Min_cycle;Max_cycle;Signal;HPM_P1;HPM_P2
2022/02/13 00:01:01;;;;;;;9.83;5.73;;;;;;;;;;5034230;28;20441;-90
2022/02/13 00:03:28;;;;;;;8.27;5.33;;;;;;;;;;5035251;28;20455;-89
2022/02/13 00:05:56;;;;;;;10.50;5.73;;;;;;;;;;5034110;28;20504;-89
2022/02/13 00:08:23;;;;;;;8.00;5.27;;;;;;;;;;5033871;28;21053;-90
2022/02/13 00:10:51;;;;;;;7.30;4.60;;;;;;;;;;5035370;28;20955;-89
2022/02/13 00:13:18;;;;;;;5.33;4.33;;;;;;;;;;5034609;28;20452;-90
2022/02/13 00:15:48;;;;;;;2.90;1.73;;;0.70;99.90;;;;;;5034176;28;20450;-89
2022/02/13 00:18:15;;;;;;;8.93;5.70;;;;;;;;;;5040501;28;20527;-89
2022/02/13 00:20:43;;;;;;;5.30;3.03;;;;;;;;;;5052897;28;20482;-88
2022/02/13 00:23:10;;;;;;;5.93;3.63;;;;;;;;;;5054490;28;20454;-89
2022/02/13 00:25:37;;;;;;;11.40;4.87;;;;;;;;;;5054245;28;20444;-87
2022/02/13 00:28:12;;;;;;;8.40;4.90;;;;;;;;;;5034590;28;21016;-88
2022/02/13 00:30:42;;;;;;;6.10;3.13;;;;;;;;;;5052924;28;20516;-89
2022/02/13 00:33:09;;;;;;;8.40;5.53;;;;;;;;;;5053046;28;20455;-88
2022/02/13 00:35:36;;;;;;;2.73;2.40;;;;;;;;;;5051709;28;20445;-88
2022/02/13 00:38:03;;;;;;;1.90;1.40;;;;;;;;;;5053309;28;20443;-89
2022/02/13 00:40:30;;;;;;;8.07;5.93;;;;;;;;;;5052723;28;20814;-90
2022/02/13 00:42:57;;;;;;;4.83;2.57;;;;;;;;;;5052719;28;20462;-87
2022/02/13 00:45:26;;;;;;;4.00;2.50;;;;;;;;;;5052739;28;20462;-87
2022/02/13 00:47:53;;;;;;;3.17;2.87;;;;;;;;;;5052627;28;20494;-87
2022/02/13 00:50:20;;;;;;;9.30;4.77;;;;;;;;;;5051939;28;20463;-89
2022/02/13 00:52:47;;;;;;;5.30;3.87;;;;;;;;;;5052595;28;20455;-88
2022/02/13 00:55:15;;;;;;;1.63;1.27;;;;;;;;;;5052491;28;20458;-87
2022/02/13 00:57:42;;;;;;;2.57;1.80;;;;;;;;;;5052304;28;20983;-90
2022/02/13 01:00:10;;;;;;;7.30;3.63;;;1.20;99.90;;;;;;5052712;28;20460;-87
2022/02/13 01:02:38;;;;;;;4.43;2.80;;;1.20;99.90;;;;;;5052616;28;20447;-88
2022/02/13 01:05:05;;;;;;;7.80;4.07;;;;;;;;;;5051464;28;20458;-89
2022/02/13 01:07:32;;;;;;;1.40;1.30;;;;;;;;;;5055481;28;20834;-88
2022/02/13 01:09:59;;;;;;;2.97;2.40;;;;;;;;;;5056128;28;20460;-89
2022/02/13 01:12:27;;;;;;;5.63;3.40;;;;;;;;;;5056303;28;20447;-88
2022/02/13 01:14:54;;;;;;;3.50;2.57;;;;;;;;;;5056127;28;20464;-87
2022/02/13 01:17:21;;;;;;;8.43;4.40;;;;;;;;;;5056336;28;20460;-88
2022/02/13 01:19:49;;;;;;;7.90;3.87;;;1.30;99.90;;;;;;5055191;28;20492;-89
2022/02/13 01:22:16;;;;;;;7.53;4.30;;;;;;;;;;5056036;28;20450;-88
2022/02/13 01:24:43;;;;;;;4.30;3.00;;;;;;;;;;5055722;28;20925;-89
2022/02/13 01:27:10;;;;;;;5.60;5.20;;;;;;;;;;5056000;28;20488;-92
2022/02/13 01:29:38;;;;;;;7.20;3.20;;;;;;;;;;5055480;28;20965;-90
2022/02/13 01:32:05;;;;;;;11.67;4.57;;;1.40;99.90;;;;;;5055794;28;20474;-90
2022/02/13 01:34:32;;;;;;;3.50;2.20;;;;;;;;;;5054921;28;20464;-88
2022/02/13 01:37:01;;;;;;;3.77;2.50;;;1.40;99.90;;;;;;5056085;28;20907;-88
2022/02/13 01:39:28;;;;;;;4.40;3.10;;;;;;;;;;5055161;28;20447;-89
2022/02/13 01:41:55;;;;;;;4.70;3.77;;;;;;;;;;5055448;28;20451;-87
2022/02/13 01:44:26;;;;;;;6.60;4.43;;;1.30;99.90;;;;;;5055029;28;20455;-87
2022/02/13 01:46:54;;;;;;;7.10;4.80;;;;;;;;;;5055421;28;20481;-89
2022/02/13 01:49:21;;;;;;;7.53;4.87;;;;;;;;;;5054305;28;20450;-89
2022/02/13 01:51:48;;;;;;;5.50;2.47;;;;;;;;;;5054920;28;20447;-87
2022/02/13 01:54:16;;;;;;;6.60;4.63;;;0.30;99.90;;;;;;5055074;28;20954;-88
2022/02/13 01:56:44;;;;;;;6.30;4.60;;;1.20;99.90;;;;;;5055248;28;20465;-89
2022/02/13 01:59:12;;;;;;;8.40;4.20;;;1.20;99.90;;;;;;5054976;28;20453;-87
2022/02/13 02:01:39;;;;;;;4.63;3.70;;;;;;;;;;5055265;28;20452;-89
2022/02/13 02:04:06;;;;;;;6.33;3.50;;;;;;;;;;5055957;28;20466;-88
2022/02/13 02:06:33;;;;;;;7.60;4.17;;;;;;;;;;5053913;28;20451;-88
2022/02/13 02:09:01;;;;;;;11.60;5.17;;;1.20;99.90;;;;;;5054981;28;20505;-88
2022/02/13 02:11:29;;;;;;;7.73;4.97;;;1.10;99.90;;;;;;5055225;28;20473;-89
2022/02/13 02:13:56;;;;;;;7.17;5.23;;;;;;;;;;5054993;28;20456;-88
2022/02/13 02:16:23;;;;;;;9.30;5.83;;;;;;;;;;5054951;28;20451;-89
2022/02/13 02:18:50;;;;;;;7.93;5.57;;;;;;;;;;5054248;28;20481;-88
2022/02/13 02:21:18;;;;;;;6.13;5.10;;;;;;;;;;5053633;28;20510;-88
2022/02/13 02:23:46;;;;;;;9.40;5.60;;;0.80;99.90;;;;;;5054841;28;20454;-88
2022/02/13 02:26:17;;;;;;;8.67;5.20;;;0.60;99.90;;;;;;5054776;28;20449;-88
2022/02/13 02:28:44;;;;;;;7.20;5.40;;;;;;;;;;5054749;28;20495;-88
2022/02/13 02:31:12;;;;;;;10.10;6.10;;;;;;;;;;5055931;28;20479;-89
2022/02/13 02:33:39;;;;;;;10.93;5.50;;;;;;;;;;5054863;28;20443;-88
2022/02/13 02:36:06;;;;;;;7.57;4.50;;;;;;;;;;5053683;28;20458;-89
2022/02/13 02:38:33;;;;;;;8.30;6.00;;;;;;;;;;5054395;28;20461;-88
2022/02/13 02:41:02;;;;;;;6.70;4.10;;;0.30;99.90;;;;;;5054605;28;20462;-88
2022/02/13 02:43:29;;;;;;;5.13;3.13;;;;;;;;;;5054608;28;20435;-88
2022/02/13 02:45:56;;;;;;;3.97;2.40;;;;;;;;;;5054591;28;20813;-89
2022/02/13 02:48:23;;;;;;;4.67;2.67;;;;;;;;;;5054418;28;20491;-88
2022/02/13 02:50:50;;;;;;;3.00;1.20;;;;;;;;;;5053396;28;20942;-88
2022/02/13 02:53:17;;;;;;;2.80;2.50;;;;;;;;;;5054222;28;20446;-89
2022/02/13 02:55:44;;;;;;;5.20;3.60;;;;;;;;;;5053847;28;20466;-87
2022/02/13 02:58:13;;;;;;;2.53;1.90;;;1.40;99.90;;;;;;5054360;28;20447;-88
2022/02/13 03:00:40;;;;;;;1.60;1.50;;;;;;;;;;5053546;28;20450;-89
2022/02/13 03:03:07;;;;;;;3.37;2.10;;;;;;;;;;5054055;28;20447;-87
2022/02/13 03:05:34;;;;;;;5.80;4.00;;;;;;;;;;5052914;28;20449;-88
2022/02/13 03:08:01;;;;;;;3.63;2.37;;;;;;;;;;5053555;28;20529;-87
2022/02/13 03:10:28;;;;;;;15.90;3.80;;;;;;;;;;5053895;28;20451;-89
2022/02/13 03:12:55;;;;;;;2.77;2.53;;;;;;;;;;5053784;28;20450;-88
2022/02/13 03:15:24;;;;;;;5.83;3.13;;;1.80;99.90;;;;;;5053749;28;20453;-88
2022/02/13 03:17:51;;;;;;;5.90;3.07;;;;;;;;;;5054025;28;20463;-88
2022/02/13 03:20:18;;;;;;;4.17;2.73;;;;;;;;;;5052885;28;20491;-88
2022/02/13 03:22:45;;;;;;;5.17;4.10;;;;;;;;;;5053433;28;20486;-90
2022/02/13 03:25:12;;;;;;;3.87;3.17;;;;;;;;;;5053554;28;20444;-88
2022/02/13 03:27:39;;;;;;;6.27;4.50;;;;;;;;;;5053513;28;20479;-89
2022/02/13 03:30:07;;;;;;;2.70;1.73;;;;;;;;;;5052677;28;20981;-88
2022/02/13 03:32:35;;;;;;;5.20;3.43;;;1.70;99.90;;;;;;5053651;28;20451;-89
2022/02/13 03:35:02;;;;;;;4.60;2.40;;;;;;;;;;5052590;28;20483;-89
2022/02/13 03:37:29;;;;;;;3.67;3.30;;;;;;;;;;5053742;28;20820;-88
2022/02/13 03:39:56;;;;;;;4.23;3.03;;;;;;;;;;5053464;28;20450;-88
2022/02/13 03:42:23;;;;;;;3.83;2.70;;;;;;;;;;5053569;28;20438;-89
2022/02/13 03:44:51;;;;;;;4.90;2.93;;;;;;;;;;5053472;28;20461;-88
2022/02/13 03:47:18;;;;;;;6.67;4.70;;;;;;;;;;5053227;28;20844;-88
2022/02/13 03:49:46;;;;;;;12.13;5.00;;;1.30;99.90;;;;;;5052493;28;20454;-90
2022/02/13 03:52:14;;;;;;;4.10;3.40;;;;;;;;;;5053682;28;20459;-88
2022/02/13 03:54:41;;;;;;;9.33;5.33;;;;;;;;;;5053252;28;20534;-88
2022/02/13 03:57:08;;;;;;;7.30;3.87;;;;;;;;;;5052938;28;20501;-88
2022/02/13 03:59:35;;;;;;;6.87;4.60;;;;;;;;;;5053186;28;20978;-90
2022/02/13 04:02:02;;;;;;;2.20;1.90;;;;;;;;;;5053137;28;20443;-88
2022/02/13 04:04:29;;;;;;;3.37;2.60;;;;;;;;;;5051703;28;20443;-90
2022/02/13 04:06:57;;;;;;;7.73;2.37;;;1.60;99.90;;;;;;5052826;28;20462;-88
2022/02/13 04:09:24;;;;;;;9.10;3.37;;;;;;;;;;5052813;28;20864;-89
2022/02/13 04:11:51;;;;;;;6.20;4.20;;;;;;;;;;5053279;28;20822;-88
2022/02/13 04:14:19;;;;;;;2.40;2.17;;;;;;;;;;5052864;28;20455;-88
2022/02/13 04:16:46;;;;;;;4.37;2.43;;;;;;;;;;5052660;28;20458;-88
2022/02/13 04:19:13;;;;;;;11.00;3.27;;;;;;;;;;5052040;28;20490;-88
2022/02/13 04:21:40;;;;;;;9.20;4.33;;;;;;;;;;5053949;28;20465;-89
2022/02/13 04:24:08;;;;;;;3.20;2.37;;;2.20;99.90;;;;;;5052561;28;20439;-89
2022/02/13 04:26:35;;;;;;;1.97;1.80;;;;;;;;;;5052510;28;20931;-87
2022/02/13 04:29:02;;;;;;;5.40;3.27;;;;;;;;;;5052899;28;20995;-88
2022/02/13 04:31:30;;;;;;;2.33;1.70;;;;;;;;;;5052508;28;20470;-88
2022/02/13 04:33:58;;;;;;;2.50;1.63;;;2.40;99.90;;;;;;5036891;28;20800;-88
2022/02/13 04:36:25;;;;;;;3.47;1.27;;;;;;;;;;5031658;28;20940;-88
2022/02/13 04:38:52;;;;;;;4.33;2.70;;;;;;;;;;5032232;28;20452;-89
2022/02/13 04:41:21;;;;;;;4.30;2.37;;;2.60;99.90;;;;;;5034207;28;20816;-89
2022/02/13 04:43:48;;;;;;;1.77;1.27;;;;;;;;;;5034691;28;20490;-89
2022/02/13 04:46:15;;;;;;;3.07;1.57;;;;;;;;;;5036794;28;20503;-89
2022/02/13 04:48:42;;;;;;;1.50;1.40;;;;;;;;;;5036405;28;20501;-88
2022/02/13 04:51:09;;;;;;;3.30;2.17;;;;;;;;;;5040786;28;20460;-89
2022/02/13 04:53:37;;;;;;;3.37;1.57;;;;;;;;;;5036449;28;20453;-88
2022/02/13 04:56:04;;;;;;;5.03;3.07;;;;;;;;;;5036500;28;20457;-89
2022/02/13 04:58:33;;;;;;;4.63;2.70;;;2.60;99.90;;;;;;5036465;28;20448;-88
2022/02/13 05:01:00;;;;;;;5.57;2.43;;;;;;;;;;5036367;28;20462;-88
2022/02/13 05:03:27;;;;;;;6.37;3.50;;;;;;;;;;5036572;28;20459;-88
2022/02/13 05:05:54;;;;;;;5.73;2.67;;;;;;;;;;5026458;28;20817;-89
2022/02/13 05:08:21;;;;;;;5.10;3.47;;;;;;;;;;5038591;28;20477;-88
2022/02/13 05:10:49;;;;;;;5.37;3.40;;;;;;;;;;5036553;28;20463;-90
2022/02/13 05:13:16;;;;;;;3.77;2.80;;;;;;;;;;5036273;28;20447;-88
2022/02/13 05:15:44;;;;;;;6.30;3.03;;;;;;;;;;5036236;28;20462;-89
2022/02/13 05:18:12;;;;;;;6.23;3.17;;;;;;;;;;5036210;28;20456;-88
2022/02/13 05:20:39;;;;;;;3.10;2.73;;;;;;;;;;5035000;28;20487;-89
2022/02/13 05:23:06;;;;;;;7.77;2.57;;;;;;;;;;5036092;28;20456;-88
2022/02/13 05:25:33;;;;;;;7.03;3.80;;;;;;;;;;5036106;28;20455;-88
2022/02/13 05:28:00;;;;;;;4.43;2.40;;;;;;;;;;5035891;28;20452;-89
2022/02/13 05:30:27;;;;;;;6.23;3.20;;;;;;;;;;5035861;28;20543;-90
2022/02/13 05:32:55;;;;;;;3.93;2.60;;;2.40;99.90;;;;;;5035843;28;20451;-88
2022/02/13 05:35:22;;;;;;;5.40;2.50;;;;;;;;;;5035117;28;20451;-89
2022/02/13 05:37:50;;;;;;;3.67;2.60;;;;;;;;;;5035700;28;20453;-89
2022/02/13 05:40:17;;;;;;;2.93;1.97;;;;;;;;;;5035693;28;20452;-88
2022/02/13 05:42:44;;;;;;;3.73;2.93;;;;;;;;;;5035073;28;20563;-88
2022/02/13 05:45:14;;;;;;;3.80;1.80;;;;;;;;;;5026749;28;20433;-86
2022/02/13 05:47:41;;;;;;;4.40;2.90;;;;;;;;;;5026051;28;20591;-88
2022/02/13 05:50:10;;;;;;;2.70;1.97;;;2.30;99.90;;;;;;5024887;28;20848;-88
2022/02/13 05:52:43;;;;;;;3.30;1.50;;;2.40;99.90;;;;;;5024966;28;20452;-90
2022/02/13 05:55:10;;;;;;;5.53;3.00;;;;;;;;;;5034949;28;20451;-88
2022/02/13 05:57:43;;;;;;;4.60;2.83;;;;;;;;;;5034965;28;20443;-87
2022/02/13 06:00:12;;;;;;;5.43;3.13;;;2.20;99.90;;;;;;5034673;28;20436;-89
2022/02/13 06:02:44;;;;;;;4.13;3.60;;;;;;;;;;5026840;28;20483;-87
2022/02/13 06:05:14;;;;;;;1.57;0.90;;;2.30;99.90;;;;;;5033728;28;20448;-87
2022/02/13 06:07:43;;;;;;;8.40;4.07;;;2.40;99.90;;;;;;5034795;28;20455;-89
2022/02/13 06:10:11;;;;;;;5.00;3.40;;;2.30;99.90;;;;;;5034579;28;20483;-88
2022/02/13 06:12:39;;;;;;;4.00;3.00;;;;;;;;;;5025099;28;20964;-89
2022/02/13 06:15:10;;;;;;;7.10;3.77;;;2.30;99.90;;;;;;5022264;28;20449;-88
2022/02/13 06:17:37;;;;;;;6.17;3.00;;;;;;;;;;5034753;28;20487;-89
2022/02/13 06:20:05;;;;;;;10.50;2.60;;;2.20;99.90;;;;;;5034170;28;20487;-90
2022/02/13 06:22:33;;;;;;;4.03;2.70;;;2.20;99.90;;;;;;5035086;28;20822;-88
2022/02/13 06:25:01;;;;;;;4.73;3.60;;;2.20;99.90;;;;;;5035036;28;20842;-88
2022/02/13 06:27:29;;;;;;;6.73;4.20;;;;;;;;;;5035047;28;20457;-88
2022/02/13 06:29:56;;;;;;;5.60;3.07;;;;;;;;;;5034716;28;20496;-89
2022/02/13 06:32:25;;;;;;;2.83;2.10;;;;;;;;;;5034604;28;20847;-88
2022/02/13 06:34:52;;;;;;;4.87;3.20;;;;;;;;;;5032585;28;20428;-85
2022/02/13 06:37:19;;;;;;;4.50;3.60;;;;;;;;;;5034304;28;20451;-87
2022/02/13 06:39:51;;;;;;;13.90;8.70;;;;;;;;;;5034008;28;20457;-89
2022/02/13 06:42:18;;;;;;;8.37;4.73;;;;;;;;;;5022853;28;20527;-87
2022/02/13 06:44:48;;;;;;;6.20;3.90;;;2.50;99.90;;;;;;5033575;28;20456;-90
2022/02/13 06:47:18;;;;;;;7.07;5.03;;;;;;;;;;5019611;28;20453;-90
2022/02/13 06:49:49;;;;;;;1.80;1.40;;;2.80;99.90;;;;;;5032507;28;20876;-91
2022/02/13 06:52:16;;;;;;;2.30;1.80;;;;;;;;;;5028294;28;20467;-88
2022/02/13 06:54:43;;;;;;;4.00;2.10;;;;;;;;;;5023952;28;20444;-89
2022/02/13 06:57:12;;;;;;;2.90;2.60;;;3.10;99.90;;;;;;5021992;28;20437;-86
2022/02/13 06:59:40;;;;;;;2.17;1.67;;;;;;;;;;5031287;28;20974;-87
2022/02/13 07:02:10;;;;;;;3.80;2.20;;;;;;;;;;5033885;28;20878;-88
2022/02/13 07:04:37;;;;;;;3.67;2.30;;;;;;;;;;5027138;28;21111;-88
2022/02/13 07:07:05;;;;;;;2.30;2.10;;;;;;;;;;5033502;28;20444;-89
2022/02/13 07:09:34;;;;;;;3.43;2.63;;;3.30;99.90;;;;;;5034047;28;21021;-89
2022/02/13 07:12:05;;;;;;;6.07;3.13;;;;;;;;;;5034171;28;20456;-89
2022/02/13 07:14:33;;;;;;;3.67;3.27;;;3.30;99.90;;;;;;5039605;28;20827;-90
2022/02/13 07:17:00;;;;;;;1.93;1.30;;;;;;;;;;5033796;28;20976;-87
2022/02/13 07:19:27;;;;;;;2.87;2.07;;;;;;;;;;5032750;28;20479;-87
2022/02/13 07:21:54;;;;;;;3.60;1.80;;;;;;;;;;5034264;28;20477;-88
2022/02/13 07:24:22;;;;;;;4.60;2.50;;;;;;;;;;5034092;28;20448;-87
2022/02/13 07:26:49;;;;;;;3.93;2.20;;;;;;;;;;5034046;28;20440;-88
2022/02/13 07:29:16;;;;;;;3.50;2.03;;;;;;;;;;5033650;28;20502;-86
2022/02/13 07:31:44;;;;;;;1.27;1.03;;;3.70;99.90;;;;;;5034359;28;20457;-88
2022/02/13 07:34:11;;;;;;;6.40;3.13;;;;;;;;;;5033675;28;20448;-88
2022/02/13 07:36:39;;;;;;;5.17;3.40;;;3.80;99.90;;;;;;5032895;28;20455;-90
2022/02/13 07:39:06;;;;;;;9.87;3.67;;;;;;;;;;5031311;28;20450;-90
2022/02/13 07:41:33;;;;;;;6.37;3.40;;;;;;;;;;5039063;28;20462;-90
2022/02/13 07:44:01;;;;;;;6.83;3.63;;;;;;;;;;5033762;28;20445;-87
2022/02/13 07:46:28;;;;;;;7.60;3.40;;;;;;;;;;5033752;28;20455;-88
2022/02/13 07:48:56;;;;;;;4.63;2.80;;;4.50;99.90;;;;;;5033612;28;20490;-86
2022/02/13 07:51:26;;;;;;;2.90;2.57;;;;;;;;;;5032230;28;20444;-86
2022/02/13 07:53:53;;;;;;;3.77;2.00;;;;;;;;;;5033463;28;20534;-87
2022/02/13 07:56:20;;;;;;;6.37;3.93;;;;;;;;;;5033821;28;20440;-86
2022/02/13 07:58:47;;;;;;;2.97;1.67;;;;;;;;;;5034149;28;20452;-88
2022/02/13 08:01:17;;;;;;;6.70;3.33;;;;;;;;;;5033245;28;20450;-86
2022/02/13 08:03:45;;;;;;;4.10;2.20;;;;;;;;;;5033448;28;20456;-87
2022/02/13 08:06:15;;;;;;;1.50;1.40;;;5.50;99.90;;;;;;5032082;28;20462;-88
2022/02/13 08:08:42;;;;;;;3.50;2.43;;;;;;;;;;5033160;28;20479;-86
2022/02/13 08:11:09;;;;;;;3.20;2.17;;;;;;;;;;5033305;28;20458;-88
2022/02/13 08:13:36;;;;;;;5.80;3.93;;;;;;;;;;5033320;28;20452;-85
2022/02/13 08:16:04;;;;;;;0.93;0.80;;;;;;;;;;5033509;28;20470;-91
2022/02/13 08:18:31;;;;;;;3.97;2.10;;;;;;;;;;5034378;28;20451;-91
2022/02/13 08:20:58;;;;;;;2.70;1.87;;;;;;;;;;5037863;28;20500;-87
2022/02/13 08:23:27;;;;;;;8.80;2.13;;;;;;;;;;5034087;28;20800;-92
2022/02/13 08:25:54;;;;;;;3.63;2.20;;;;;;;;;;5039599;28;20452;-93
2022/02/13 08:28:22;;;;;;;5.37;3.30;;;;;;;;;;5039742;28;20570;-93
2022/02/13 08:30:49;;;;;;;12.00;3.80;;;;;;;;;;5033972;28;20499;-88
2022/02/13 08:33:16;;;;;;;9.50;4.40;;;;;;;;;;5032994;28;20448;-87
2022/02/13 08:35:43;;;;;;;10.47;5.27;;;;;;;;;;5032273;28;20443;-89
2022/02/13 08:38:10;;;;;;;9.20;3.97;;;;;;;;;;5034083;28;20451;-92
2022/02/13 08:40:41;;;;;;;3.37;2.50;;;;;;;;;;5033868;28;20450;-92
2022/02/13 08:43:08;;;;;;;9.47;5.47;;;;;;;;;;5033663;28;20456;-88
2022/02/13 08:45:37;;;;;;;3.23;2.73;;;7.30;99.90;;;;;;5032762;28;20936;-85
2022/02/13 08:48:04;;;;;;;5.10;3.43;;;;;;;;;;5032742;28;20456;-86
2022/02/13 08:50:32;;;;;;;5.07;3.47;;;;;;;;;;5031206;28;20495;-86
2022/02/13 08:52:59;;;;;;;6.67;3.80;;;;;;;;;;5032717;28;20443;-88
2022/02/13 08:55:26;;;;;;;4.20;3.77;;;;;;;;;;5032484;28;20463;-88
2022/02/13 08:57:54;;;;;;;8.80;4.40;;;8.50;99.90;;;;;;5032676;28;20953;-87
2022/02/13 09:00:21;;;;;;;3.77;1.80;;;;;;;;;;5033323;28;20849;-91
2022/02/13 09:02:48;;;;;;;9.80;4.10;;;;;;;;;;5033230;28;20452;-85
2022/02/13 09:05:17;;;;;;;8.60;3.10;;;;;;;;;;5031878;28;20451;-89
2022/02/13 09:07:44;;;;;;;6.00;3.50;;;;;;;;;;5033001;28;20448;-91
2022/02/13 09:10:13;;;;;;;4.10;2.00;;;7.90;99.90;;;;;;5033485;28;20487;-88
2022/02/13 09:12:40;;;;;;;4.97;4.47;;;;;;;;;;5032468;28;20458;-89
2022/02/13 09:15:10;;;;;;;3.87;2.47;;;9.00;99.90;;;;;;5033384;28;20454;-91
2022/02/13 09:17:37;;;;;;;13.50;4.20;;;;;;;;;;5032981;28;20463;-88
2022/02/13 09:20:08;;;;;;;6.73;4.00;;;9.20;99.20;;;;;;5033578;28;20502;-92
2022/02/13 09:22:36;;;;;;;5.83;4.07;;;;;;;;;;5033213;28;20454;-92
2022/02/13 09:25:03;;;;;;;6.60;4.10;;;;;;;;;;5033100;28;20466;-88
2022/02/13 09:27:30;;;;;;;10.00;4.73;;;;;;;;;;5032837;28;20451;-89
2022/02/13 09:29:57;;;;;;;5.67;3.50;;;;;;;;;;5036169;28;20494;-87
2022/02/13 09:32:25;;;;;;;12.10;8.67;;;9.50;98.80;;;;;;5035727;28;20447;-87
2022/02/13 09:34:52;;;;;;;33.23;20.53;;;;;;;;;;5034533;28;20460;-89
2022/02/13 09:37:19;;;;;;;12.63;8.00;;;;;;;;;;5032838;28;20505;-88
2022/02/13 09:39:48;;;;;;;8.33;3.40;;;9.90;97.20;;;;;;5035780;28;20455;-89
2022/02/13 09:42:15;;;;;;;8.07;4.97;;;;;;;;;;5035685;28;20458;-87
2022/02/13 09:44:42;;;;;;;7.37;5.20;;;;;;;;;;5035593;28;20480;-90
2022/02/13 09:47:10;;;;;;;7.10;5.13;;;9.90;99.40;;;;;;5036538;28;20464;-87
2022/02/13 09:49:39;;;;;;;3.03;2.67;;;;;;;;;;5034451;28;20487;-88
2022/02/13 09:52:06;;;;;;;6.47;3.80;;;;;;;;;;5035700;28;21052;-89
2022/02/13 09:54:34;;;;;;;7.40;5.70;;;;;;;;;;5036625;28;20454;-88
2022/02/13 10:00:03;;;;;;;5.83;5.20;;;10.60;97.30;;;;;;5034967;28;20939;-87
2022/02/13 10:02:37;;;;;;;8.30;6.47;;;;;;;;;;5034808;28;20443;-92
2022/02/13 10:05:07;;;;;;;9.20;6.97;;;;;;;;;;5025601;28;20472;-88
2022/02/13 10:07:34;;;;;;;46.90;33.13;;;;;;;;;;5033682;28;20471;-87
2022/02/13 10:10:03;;;;;;;5.00;4.50;;;12.10;97.10;;;;;;5035001;28;20502;-94
2022/02/13 10:12:31;;;;;;;8.03;4.80;;;;;;;;;;5035031;28;20447;-88
2022/02/13 10:14:59;;;;;;;6.80;5.17;;;;;;;;;;5035553;28;20466;-88
2022/02/13 10:17:26;;;;;;;9.77;7.10;;;;;;;;;;5021421;28;20440;-90
2022/02/13 10:19:54;;;;;;;12.77;7.03;;;;;;;;;;5024167;28;20517;-90
2022/02/13 10:22:36;;;;;;;11.67;5.97;;;;;;;;;;5030645;28;20450;-87
2022/02/13 10:25:17;;;;;;;9.40;7.30;;;13.20;91.30;;;;;;5035219;28;20827;-88
2022/02/13 10:27:47;;;;;;;12.00;5.60;;;;;;;;;;5034607;28;20490;-88
2022/02/13 10:30:14;;;;;;;8.10;4.93;;;;;;;;;;5034878;28;20491;-88
2022/02/13 10:32:42;;;;;;;7.10;5.30;;;;;;;;;;5035053;28;20457;-87
2022/02/13 10:35:11;;;;;;;7.87;2.63;;;11.50;94.90;;;;;;5039006;28;20452;-87
2022/02/13 10:37:41;;;;;;;7.07;5.27;;;11.60;95.30;;;;;;5034726;28;20483;-87
2022/02/13 10:40:10;;;;;;;7.30;4.53;;;12.20;94.50;;;;;;5031685;28;20447;-89
2022/02/13 10:42:37;;;;;;;10.73;4.77;;;;;;;;;;5034537;28;20935;-89
2022/02/13 10:45:22;;;;;;;16.20;4.30;;;12.30;91.80;;;;;;5034648;28;20447;-89
2022/02/13 10:47:50;;;;;;;8.00;5.27;;;13.20;93.50;;;;;;5035884;28;20526;-89
2022/02/13 10:50:18;;;;;;;8.80;4.90;;;13.10;92.30;;;;;;5033814;28;20490;-90
2022/02/13 10:52:48;;;;;;;4.70;3.67;;;12.20;95.60;;;;;;5034581;28;20448;-88
2022/02/13 10:55:16;;;;;;;5.13;3.10;;;;;;;;;;5034720;28;20452;-88
2022/02/13 10:57:43;;;;;;;7.60;4.20;;;;;;;;;;5039904;28;20455;-89
2022/02/13 11:00:12;;;;;;;8.23;4.47;;;12.70;92.60;;;;;;5040189;28;20459;-88
2022/02/13 11:02:40;;;;;;;7.30;4.83;;;13.00;91.10;;;;;;5035639;28;20463;-91
2022/02/13 11:05:08;;;;;;;7.00;3.57;;;12.90;92.00;;;;;;5033135;28;20447;-90
2022/02/13 11:07:38;;;;;;;9.40;4.87;;;13.30;91.60;;;;;;5039728;28;20501;-88
2022/02/13 11:10:10;;;;;;;4.23;3.10;;;13.30;91.40;;;;;;5034020;28;20491;-88
2022/02/13 11:12:37;;;;;;;4.90;4.40;;;;;;;;;;5034254;28;21073;-89
2022/02/13 11:15:18;;;;;;;8.97;4.27;;;13.50;87.90;;;;;;5034183;28;20455;-89
2022/02/13 11:17:46;;;;;;;5.73;4.70;;;13.90;91.50;;;;;;5034090;28;20519;-90
2022/02/13 11:20:14;;;;;;;5.60;3.50;;;13.40;91.10;;;;;;5030570;28;20480;-87
2022/02/13 11:22:42;;;;;;;4.40;3.43;;;;;;;;;;5033943;28;20455;-86
2022/02/13 11:25:11;;;;;;;4.20;3.77;;;12.60;91.20;;;;;;5033824;28;20509;-88
2022/02/13 11:27:57;;;;;;;8.80;6.33;;;12.80;88.30;;;;;;5033740;28;20467;-88
2022/02/13 11:30:43;;;;;;;6.37;2.97;;;12.70;86.50;;;;;;5033923;28;20548;-86
2022/02/13 11:33:12;;;;;;;5.30;4.00;;;12.70;90.80;;;;;;5033702;28;20931;-88
2022/02/13 11:35:57;;;;;;;5.00;4.10;;;12.30;86.50;;;;;;5032519;28;20452;-86
2022/02/13 11:38:54;;;;;;;7.10;4.70;;;12.60;89.70;;;;;;5033503;28;21030;-87
2022/02/13 11:42:07;;;;;;;8.30;3.00;;;12.10;90.50;;;;;;5029461;28;20456;-86
2022/02/13 11:44:46;;;;;;;8.27;3.73;;;12.30;90.00;;;;;;5033500;28;20958;-87
2022/02/13 11:47:15;;;;;;;9.67;3.47;;;12.00;90.00;;;;;;5033430;28;20458;-87
2022/02/13 11:50:19;;;;;;;9.00;5.13;;;12.20;87.20;;;;;;5032163;28;20455;-87
2022/02/13 11:53:05;;;;;;;4.07;2.00;;;11.90;90.00;;;;;;5033278;28;20449;-88
2022/02/13 11:55:35;;;;;;;5.80;3.90;;;12.30;89.60;;;;;;5032649;28;20487;-87
2022/02/13 11:58:08;;;;;;;9.20;4.30;;;12.70;89.40;;;;;;5033599;28;20497;-88
2022/02/13 12:00:43;;;;;;;9.00;4.53;;;12.70;86.00;;;;;;5033185;28;20455;-88
2022/02/13 12:03:16;;;;;;;3.20;2.47;;;12.60;85.10;;;;;;5031683;28;21013;-86
2022/02/13 12:05:43;;;;;;;4.00;2.70;;;;;;;;;;5031344;28;20455;-87
2022/02/13 12:08:11;;;;;;;6.70;4.03;;;;;;;;;;5030181;28;20443;-88
2022/02/13 12:10:41;;;;;;;4.30;3.53;;;11.90;88.70;;;;;;5032708;28;20490;-86
2022/02/13 12:13:12;;;;;;;4.43;3.10;;;11.90;89.00;;;;;;5033252;28;20459;-90
2022/02/13 12:15:40;;;;;;;4.77;3.00;;;;;;;;;;5034225;28;20482;-89
2022/02/13 12:18:08;;;;;;;5.10;3.40;;;12.60;86.20;;;;;;5028431;28;20540;-87
2022/02/13 12:20:35;;;;;;;4.73;1.60;;;;;;;;;;5012839;28;20481;-85
2022/02/13 12:23:04;;;;;;;4.77;2.87;;;12.50;87.20;;;;;;5016173;28;20963;-86
2022/02/13 12:25:32;;;;;;;3.70;2.67;;;;;;;;;;5032996;28;20935;-84
2022/02/13 12:28:00;;;;;;;3.73;2.00;;;11.80;85.70;;;;;;5034513;28;20541;-94
2022/02/13 12:30:34;;;;;;;5.07;3.67;;;;;;;;;;5038007;28;20486;-93
2022/02/13 12:33:03;;;;;;;4.10;3.00;;;;;;;;;;5047362;28;20454;-94
2022/02/13 12:35:31;;;;;;;6.47;3.90;;;12.30;85.90;;;;;;5045228;28;20459;-95
2022/02/13 12:37:59;;;;;;;5.30;3.40;;;12.30;87.00;;;;;;5090191;22;20463;-94
2022/02/13 12:40:30;;;;;;;8.10;4.60;;;12.60;86.80;;;;;;5047662;28;20428;-95
2022/02/13 12:43:00;;;;;;;9.90;5.33;;;12.60;86.30;;;;;;5048305;28;20814;-94
2022/02/13 12:45:30;;;;;;;6.90;4.03;;;12.40;86.10;;;;;;5050045;28;20447;-94
2022/02/13 12:47:59;;;;;;;5.10;3.47;;;13.20;86.10;;;;;;5042123;28;20522;-95
2022/02/13 12:50:27;;;;;;;7.90;4.70;;;12.80;86.00;;;;;;5037867;28;20533;-94
2022/02/13 12:52:58;;;;;;;6.63;3.23;;;13.40;84.60;;;;;;5033539;28;20651;-94
2022/02/13 12:55:26;;;;;;;11.77;6.10;;;;;;;;;;5033755;28;20462;-90
2022/02/13 12:57:54;;;;;;;5.37;3.97;;;12.50;85.30;;;;;;5032785;28;20455;-86
2022/02/13 13:00:22;;;;;;;5.23;2.50;;;12.10;86.70;;;;;;5030105;28;20951;-85
2022/02/13 13:02:55;;;;;;;8.33;4.03;;;12.40;85.50;;;;;;5034924;28;20448;-87
2022/02/13 13:05:28;;;;;;;4.90;3.37;;;12.50;85.80;;;;;;5035698;28;20451;-94
2022/02/13 13:08:01;;;;;;;11.47;6.07;;;;;;;;;;5038721;28;20436;-92
2022/02/13 13:10:28;;;;;;;9.07;3.90;;;;;;;;;;5038193;28;20471;-93
2022/02/13 13:13:00;;;;;;;9.10;5.13;;;;;;;;;;5038352;28;20463;-93
2022/02/13 13:15:27;;;;;;;6.60;4.87;;;;;;;;;;5039969;28;20451;-94
2022/02/13 13:17:57;;;;;;;9.27;6.90;;;;;;;;;;5039958;28;20449;-95
2022/02/13 13:20:31;;;;;;;3.93;2.57;;;12.70;83.90;;;;;;5047337;28;20455;-93
2022/02/13 13:23:14;;;;;;;8.00;4.50;;;12.80;84.10;;;;;;5046888;28;20450;-88
2022/02/13 13:25:44;;;;;;;9.53;6.50;;;;;;;;;;5036075;28;20455;-88
2022/02/13 13:28:12;;;;;;;7.67;4.20;;;12.90;84.30;;;;;;5035766;28;20885;-86
2022/02/13 13:30:39;;;;;;;11.90;6.30;;;;;;;;;;5035936;28;20848;-87
2022/02/13 13:33:08;;;;;;;13.40;8.70;;;13.40;82.80;;;;;;5035955;28;20483;-88
2022/02/13 13:35:35;;;;;;;7.33;4.60;;;12.90;84.00;;;;;;5034957;28;20467;-86
2022/02/13 13:38:05;;;;;;;6.60;3.97;;;13.10;84.70;;;;;;5027725;28;20450;-88
2022/02/13 13:40:33;;;;;;;8.27;5.47;;;;;;;;;;5030253;28;20447;-89
2022/02/13 13:43:08;;;;;;;7.30;3.80;;;13.20;82.70;;;;;;5034060;28;20453;-88
2022/02/13 13:45:36;;;;;;;9.70;3.37;;;;;;;;;;5026590;28;20451;-89
2022/02/13 13:48:05;;;;;;;6.13;3.93;;;13.40;86.40;;;;;;5025175;28;20451;-87
2022/02/13 13:50:36;;;;;;;4.60;3.40;;;13.20;83.40;;;;;;5019741;28;20447;-90
2022/02/13 13:53:06;;;;;;;9.00;6.83;;;13.40;82.40;;;;;;5015872;28;20452;-89
2022/02/13 13:55:33;;;;;;;7.03;4.50;;;;;;;;;;5015714;28;20829;-86
2022/02/13 13:58:00;;;;;;;6.97;4.47;;;;;;;;;;5015617;28;21002;-86
2022/02/13 14:00:27;;;;;;;5.40;2.70;;;;;;;;;;5015524;28;20936;-88
2022/02/13 14:02:57;;;;;;;7.13;3.80;;;12.90;83.20;;;;;;5015458;28;20451;-86
2022/02/13 14:05:25;;;;;;;5.20;2.40;;;;;;;;;;5014418;28;20537;-86
2022/02/13 14:07:54;;;;;;;7.00;3.07;;;13.40;81.30;;;;;;5015941;28;20437;-87
2022/02/13 14:10:22;;;;;;;4.40;2.07;;;;;;;;;;5015279;28;20459;-86
2022/02/13 14:12:50;;;;;;;2.83;1.53;;;;;;;;;;5015501;28;20503;-86